sensor_id;sensor_type;location;lat;lon;timestamp;P1;durP1;ratioP1;P2;durP2;ratioP2
16862;SDS011;52193;48.216;-1.698;2024-02-21T00:02:20;96.93;;;90.47;;
16862;SDS011;52193;48.216;-1.698;2024-02-21T00:04:47;96.22;;;89.78;;
16862;SDS011;52193;48.216;-1.698;2024-02-21T00:07:13;104.35;;;97.57;;
16862;SDS011;52193;48.216;-1.698;2024-02-21T00:09:40;103.55;;;96.78;;
16862;SDS011;52193;48.216;-1.698;2024-02-21T00:12:08;104.38;;;97.53;;
16862;SDS011;52193;48.216;-1.698;2024-02-21T00:14:36;105.38;;;98.38;;
16862;SDS011;52193;48.216;-1.698;2024-02-21T00:17:03;108.63;;;101.35;;
16862;SDS011;52193;48.216;-1.698;2024-02-21T00:19:30;110.20;;;102.80;;
16862;SDS011;52193;48.216;-1.698;2024-02-21T00:21:57;108.55;;;101.15;;
16862;SDS011;52193;48.216;-1.698;2024-02-21T00:24:24;113.57;;;105.80;;
16862;SDS011;52193;48.216;-1.698;2024-02-21T00:26:50;117.80;;;109.63;;
16862;SDS011;52193;48.216;-1.698;2024-02-21T00:29:17;117.07;;;109.03;;
16862;SDS011;52193;48.216;-1.698;2024-02-21T00:31:45;113.28;;;105.32;;
16862;SDS011;52193;48.216;-1.698;2024-02-21T00:34:14;115.57;;;107.43;;
16862;SDS011;52193;48.216;-1.698;2024-02-21T00:36:41;114.18;;;106.07;;
16862;SDS011;52193;48.216;-1.698;2024-02-21T00:39:08;113.45;;;105.45;;
16862;SDS011;52193;48.216;-1.698;2024-02-21T00:41:34;112.72;;;104.63;;
16862;SDS011;52193;48.216;-1.698;2024-02-21T00:44:02;114.43;;;106.03;;
16862;SDS011;52193;48.216;-1.698;2024-02-21T00:46:30;113.28;;;105.13;;
16862;SDS011;52193;48.216;-1.698;2024-02-21T00:48:58;122.28;;;113.65;;
16862;SDS011;52193;48.216;-1.698;2024-02-21T00:51:25;121.47;;;112.80;;
16862;SDS011;52193;48.216;-1.698;2024-02-21T00:53:52;128.30;;;119.05;;
16862;SDS011;52193;48.216;-1.698;2024-02-21T00:56:19;123.20;;;113.93;;
16862;SDS011;52193;48.216;-1.698;2024-02-21T00:58:46;127.93;;;118.53;;
16862;SDS011;52193;48.216;-1.698;2024-02-21T01:01:13;126.90;;;117.68;;
16862;SDS011;52193;48.216;-1.698;2024-02-21T01:03:48;126.75;;;117.65;;
16862;SDS011;52193;48.216;-1.698;2024-02-21T01:06:16;128.65;;;119.10;;
16862;SDS011;52193;48.216;-1.698;2024-02-21T01:08:43;127.78;;;118.47;;
16862;SDS011;52193;48.216;-1.698;2024-02-21T01:11:10;128.90;;;119.60;;
16862;SDS011;52193;48.216;-1.698;2024-02-21T01:13:37;131.85;;;121.95;;
16862;SDS011;52193;48.216;-1.698;2024-02-21T01:16:04;132.77;;;122.75;;
16862;SDS011;52193;48.216;-1.698;2024-02-21T01:18:31;132.75;;;122.75;;
16862;SDS011;52193;48.216;-1.698;2024-02-21T01:20:58;137.75;;;127.35;;
16862;SDS011;52193;48.216;-1.698;2024-02-21T01:23:26;138.93;;;128.52;;
16862;SDS011;52193;48.216;-1.698;2024-02-21T01:25:53;138.07;;;127.78;;
16862;SDS011;52193;48.216;-1.698;2024-02-21T01:28:21;143.05;;;132.25;;
16862;SDS011;52193;48.216;-1.698;2024-02-21T01:30:48;142.50;;;131.77;;
16862;SDS011;52193;48.216;-1.698;2024-02-21T01:33:15;141.18;;;130.35;;
16862;SDS011;52193;48.216;-1.698;2024-02-21T01:35:41;141.27;;;130.50;;
16862;SDS011;52193;48.216;-1.698;2024-02-21T01:38:08;144.32;;;132.98;;
16862;SDS011;52193;48.216;-1.698;2024-02-21T01:40:37;147.02;;;135.60;;
16862;SDS011;52193;48.216;-1.698;2024-02-21T01:43:03;145.75;;;134.63;;
16862;SDS011;52193;48.216;-1.698;2024-02-21T01:45:41;145.07;;;134.18;;
16862;SDS011;52193;48.216;-1.698;2024-02-21T01:48:08;145.95;;;134.75;;
16862;SDS011;52193;48.216;-1.698;2024-02-21T01:50:35;143.27;;;132.30;;
16862;SDS011;52193;48.216;-1.698;2024-02-21T01:53:02;141.10;;;130.30;;
16862;SDS011;52193;48.216;-1.698;2024-02-21T01:55:29;145.77;;;134.57;;
16862;SDS011;52193;48.216;-1.698;2024-02-21T01:57:58;147.25;;;135.77;;
16862;SDS011;52193;48.216;-1.698;2024-02-21T02:00:25;148.48;;;137.20;;
16862;SDS011;52193;48.216;-1.698;2024-02-21T02:02:53;143.98;;;133.10;;
16862;SDS011;52193;48.216;-1.698;2024-02-21T02:05:21;144.50;;;133.57;;
16862;SDS011;52193;48.216;-1.698;2024-02-21T02:07:48;144.02;;;133.20;;
16862;SDS011;52193;48.216;-1.698;2024-02-21T02:10:15;141.38;;;130.30;;
16862;SDS011;52193;48.216;-1.698;2024-02-21T02:12:42;143.40;;;131.82;;
16862;SDS011;52193;48.216;-1.698;2024-02-21T02:15:10;145.63;;;134.13;;
16862;SDS011;52193;48.216;-1.698;2024-02-21T02:17:37;139.55;;;128.55;;
16862;SDS011;52193;48.216;-1.698;2024-02-21T02:20:04;140.80;;;129.95;;
16862;SDS011;52193;48.216;-1.698;2024-02-21T02:22:32;139.13;;;128.13;;
16862;SDS011;52193;48.216;-1.698;2024-02-21T02:25:04;143.45;;;132.10;;
16862;SDS011;52193;48.216;-1.698;2024-02-21T02:27:32;140.68;;;129.68;;
16862;SDS011;52193;48.216;-1.698;2024-02-21T02:29:58;141.73;;;130.63;;
16862;SDS011;52193;48.216;-1.698;2024-02-21T02:32:25;148.18;;;136.38;;
16862;SDS011;52193;48.216;-1.698;2024-02-21T02:34:52;148.75;;;136.93;;
16862;SDS011;52193;48.216;-1.698;2024-02-21T02:37:19;154.00;;;141.75;;
16862;SDS011;52193;48.216;-1.698;2024-02-21T02:39:46;155.50;;;143.15;;
16862;SDS011;52193;48.216;-1.698;2024-02-21T02:42:15;155.05;;;142.85;;
16862;SDS011;52193;48.216;-1.698;2024-02-21T02:44:42;157.07;;;144.55;;
16862;SDS011;52193;48.216;-1.698;2024-02-21T02:47:09;158.50;;;145.45;;
16862;SDS011;52193;48.216;-1.698;2024-02-21T02:49:36;158.88;;;146.15;;
16862;SDS011;52193;48.216;-1.698;2024-02-21T02:52:03;160.82;;;148.13;;
16862;SDS011;52193;48.216;-1.698;2024-02-21T02:54:30;162.88;;;150.07;;
16862;SDS011;52193;48.216;-1.698;2024-02-21T02:56:57;163.25;;;150.50;;
16862;SDS011;52193;48.216;-1.698;2024-02-21T02:59:25;166.05;;;153.00;;
16862;SDS011;52193;48.216;-1.698;2024-02-21T03:01:52;162.77;;;149.68;;
16862;SDS011;52193;48.216;-1.698;2024-02-21T03:04:19;167.45;;;154.02;;
16862;SDS011;52193;48.216;-1.698;2024-02-21T03:06:46;168.40;;;154.98;;
16862;SDS011;52193;48.216;-1.698;2024-02-21T03:09:13;167.05;;;153.95;;
16862;SDS011;52193;48.216;-1.698;2024-02-21T03:11:40;168.77;;;155.32;;
16862;SDS011;52193;48.216;-1.698;2024-02-21T03:14:09;169.07;;;155.50;;
16862;SDS011;52193;48.216;-1.698;2024-02-21T03:16:38;166.88;;;153.55;;
16862;SDS011;52193;48.216;-1.698;2024-02-21T03:19:04;162.52;;;149.50;;
16862;SDS011;52193;48.216;-1.698;2024-02-21T03:21:32;165.40;;;152.13;;
16862;SDS011;52193;48.216;-1.698;2024-02-21T03:23:59;169.88;;;156.48;;
16862;SDS011;52193;48.216;-1.698;2024-02-21T03:26:25;160.32;;;147.60;;
16862;SDS011;52193;48.216;-1.698;2024-02-21T03:28:52;164.15;;;150.82;;
16862;SDS011;52193;48.216;-1.698;2024-02-21T03:31:19;161.85;;;148.80;;
16862;SDS011;52193;48.216;-1.698;2024-02-21T03:33:47;159.50;;;146.85;;
16862;SDS011;52193;48.216;-1.698;2024-02-21T03:36:14;164.10;;;151.07;;
16862;SDS011;52193;48.216;-1.698;2024-02-21T03:38:41;157.05;;;144.40;;
16862;SDS011;52193;48.216;-1.698;2024-02-21T03:41:08;156.85;;;144.15;;
16862;SDS011;52193;48.216;-1.698;2024-02-21T03:43:35;159.48;;;146.75;;
16862;SDS011;52193;48.216;-1.698;2024-02-21T03:46:03;163.60;;;150.77;;
16862;SDS011;52193;48.216;-1.698;2024-02-21T03:48:30;162.57;;;149.73;;
16862;SDS011;52193;48.216;-1.698;2024-02-21T03:50:58;159.80;;;147.02;;
16862;SDS011;52193;48.216;-1.698;2024-02-21T03:53:25;159.63;;;146.90;;
16862;SDS011;52193;48.216;-1.698;2024-02-21T03:55:52;158.00;;;144.95;;
16862;SDS011;52193;48.216;-1.698;2024-02-21T03:58:19;157.98;;;145.18;;
16862;SDS011;52193;48.216;-1.698;2024-02-21T04:00:46;158.07;;;145.32;;
16862;SDS011;52193;48.216;-1.698;2024-02-21T04:03:13;157.48;;;144.52;;
16862;SDS011;52193;48.216;-1.698;2024-02-21T04:05:40;154.20;;;141.82;;
16862;SDS011;52193;48.216;-1.698;2024-02-21T04:08:08;161.75;;;148.95;;
16862;SDS011;52193;48.216;-1.698;2024-02-21T04:10:35;151.60;;;139.43;;
16862;SDS011;52193;48.216;-1.698;2024-02-21T04:13:02;155.40;;;142.98;;
16862;SDS011;52193;48.216;-1.698;2024-02-21T04:15:30;160.55;;;147.65;;
16862;SDS011;52193;48.216;-1.698;2024-02-21T04:17:56;166.77;;;153.02;;
16862;SDS011;52193;48.216;-1.698;2024-02-21T04:20:23;169.77;;;156.02;;
16862;SDS011;52193;48.216;-1.698;2024-02-21T04:22:50;175.65;;;161.60;;
16862;SDS011;52193;48.216;-1.698;2024-02-21T04:25:18;172.55;;;158.60;;
16862;SDS011;52193;48.216;-1.698;2024-02-21T04:27:45;173.60;;;159.32;;
16862;SDS011;52193;48.216;-1.698;2024-02-21T04:30:12;175.00;;;161.00;;
16862;SDS011;52193;48.216;-1.698;2024-02-21T04:32:40;175.55;;;161.15;;
16862;SDS011;52193;48.216;-1.698;2024-02-21T04:35:07;175.80;;;161.50;;
16862;SDS011;52193;48.216;-1.698;2024-02-21T04:37:34;177.18;;;163.10;;
16862;SDS011;52193;48.216;-1.698;2024-02-21T04:40:01;179.40;;;165.13;;
16862;SDS011;52193;48.216;-1.698;2024-02-21T04:42:30;182.20;;;167.75;;
16862;SDS011;52193;48.216;-1.698;2024-02-21T04:44:57;178.77;;;164.18;;
16862;SDS011;52193;48.216;-1.698;2024-02-21T04:47:23;181.68;;;167.20;;
16862;SDS011;52193;48.216;-1.698;2024-02-21T04:49:50;177.57;;;163.15;;
16862;SDS011;52193;48.216;-1.698;2024-02-21T04:52:17;181.23;;;166.73;;
16862;SDS011;52193;48.216;-1.698;2024-02-21T04:54:44;189.48;;;173.65;;
16862;SDS011;52193;48.216;-1.698;2024-02-21T04:57:11;184.32;;;169.70;;
16862;SDS011;52193;48.216;-1.698;2024-02-21T04:59:43;186.68;;;171.45;;
16862;SDS011;52193;48.216;-1.698;2024-02-21T05:02:10;186.45;;;171.98;;
16862;SDS011;52193;48.216;-1.698;2024-02-21T05:04:37;186.55;;;171.90;;
16862;SDS011;52193;48.216;-1.698;2024-02-21T05:07:05;181.77;;;167.65;;
16862;SDS011;52193;48.216;-1.698;2024-02-21T05:09:32;185.25;;;170.73;;
16862;SDS011;52193;48.216;-1.698;2024-02-21T05:11:58;188.60;;;174.20;;
16862;SDS011;52193;48.216;-1.698;2024-02-21T05:14:25;182.20;;;167.75;;
16862;SDS011;52193;48.216;-1.698;2024-02-21T05:16:54;191.15;;;176.13;;
16862;SDS011;52193;48.216;-1.698;2024-02-21T05:19:21;192.65;;;177.88;;
16862;SDS011;52193;48.216;-1.698;2024-02-21T05:21:48;191.45;;;176.63;;
16862;SDS011;52193;48.216;-1.698;2024-02-21T05:24:15;180.65;;;166.68;;
16862;SDS011;52193;48.216;-1.698;2024-02-21T05:26:41;182.98;;;168.95;;
16862;SDS011;52193;48.216;-1.698;2024-02-21T05:29:08;186.05;;;172.00;;
16862;SDS011;52193;48.216;-1.698;2024-02-21T05:31:43;174.52;;;161.10;;
16862;SDS011;52193;48.216;-1.698;2024-02-21T05:34:23;180.07;;;166.23;;
16862;SDS011;52193;48.216;-1.698;2024-02-21T05:36:50;182.98;;;168.55;;
16862;SDS011;52193;48.216;-1.698;2024-02-21T05:39:17;180.98;;;167.00;;
16862;SDS011;52193;48.216;-1.698;2024-02-21T05:41:44;178.98;;;164.82;;
16862;SDS011;52193;48.216;-1.698;2024-02-21T05:44:11;180.95;;;167.00;;
16862;SDS011;52193;48.216;-1.698;2024-02-21T05:46:38;180.73;;;166.73;;
16862;SDS011;52193;48.216;-1.698;2024-02-21T05:49:07;180.82;;;166.75;;
16862;SDS011;52193;48.216;-1.698;2024-02-21T05:51:34;180.73;;;166.45;;
16862;SDS011;52193;48.216;-1.698;2024-02-21T05:54:01;177.57;;;163.63;;
16862;SDS011;52193;48.216;-1.698;2024-02-21T05:56:28;175.30;;;161.52;;
16862;SDS011;52193;48.216;-1.698;2024-02-21T05:58:54;183.32;;;169.02;;
16862;SDS011;52193;48.216;-1.698;2024-02-21T06:01:21;175.02;;;160.82;;
16862;SDS011;52193;48.216;-1.698;2024-02-21T06:03:48;175.65;;;161.43;;
16862;SDS011;52193;48.216;-1.698;2024-02-21T06:06:16;176.20;;;162.50;;
16862;SDS011;52193;48.216;-1.698;2024-02-21T06:08:43;169.63;;;156.10;;
16862;SDS011;52193;48.216;-1.698;2024-02-21T06:11:10;166.27;;;152.73;;
16862;SDS011;52193;48.216;-1.698;2024-02-21T06:13:38;168.40;;;154.70;;
16862;SDS011;52193;48.216;-1.698;2024-02-21T06:16:05;165.00;;;151.32;;
16862;SDS011;52193;48.216;-1.698;2024-02-21T06:18:34;167.07;;;153.57;;
16862;SDS011;52193;48.216;-1.698;2024-02-21T06:21:02;164.90;;;151.55;;
16862;SDS011;52193;48.216;-1.698;2024-02-21T06:23:31;166.77;;;153.27;;
16862;SDS011;52193;48.216;-1.698;2024-02-21T06:25:58;169.13;;;155.43;;
16862;SDS011;52193;48.216;-1.698;2024-02-21T06:28:25;172.27;;;158.55;;
16862;SDS011;52193;48.216;-1.698;2024-02-21T06:30:52;168.25;;;154.70;;
16862;SDS011;52193;48.216;-1.698;2024-02-21T06:33:18;169.85;;;156.05;;
16862;SDS011;52193;48.216;-1.698;2024-02-21T06:35:49;168.20;;;154.65;;
16862;SDS011;52193;48.216;-1.698;2024-02-21T06:38:18;166.63;;;153.23;;
16862;SDS011;52193;48.216;-1.698;2024-02-21T06:40:46;171.10;;;157.10;;
16862;SDS011;52193;48.216;-1.698;2024-02-21T06:43:17;167.50;;;154.00;;
16862;SDS011;52193;48.216;-1.698;2024-02-21T06:45:45;170.20;;;156.38;;
16862;SDS011;52193;48.216;-1.698;2024-02-21T06:48:15;169.82;;;156.15;;
16862;SDS011;52193;48.216;-1.698;2024-02-21T06:50:43;170.52;;;156.70;;
16862;SDS011;52193;48.216;-1.698;2024-02-21T06:53:10;167.55;;;154.32;;
16862;SDS011;52193;48.216;-1.698;2024-02-21T06:55:37;167.95;;;154.25;;
16862;SDS011;52193;48.216;-1.698;2024-02-21T06:58:05;173.27;;;159.27;;
16862;SDS011;52193;48.216;-1.698;2024-02-21T07:00:36;172.80;;;158.95;;
16862;SDS011;52193;48.216;-1.698;2024-02-21T07:03:03;175.10;;;161.10;;
16862;SDS011;52193;48.216;-1.698;2024-02-21T07:05:30;181.50;;;167.20;;
16862;SDS011;52193;48.216;-1.698;2024-02-21T07:07:57;181.15;;;166.73;;
16862;SDS011;52193;48.216;-1.698;2024-02-21T07:10:24;185.82;;;171.18;;
16862;SDS011;52193;48.216;-1.698;2024-02-21T07:12:52;188.18;;;173.48;;
16862;SDS011;52193;48.216;-1.698;2024-02-21T07:15:21;187.80;;;172.50;;
16862;SDS011;52193;48.216;-1.698;2024-02-21T07:17:47;191.80;;;176.68;;
16862;SDS011;52193;48.216;-1.698;2024-02-21T07:20:14;194.70;;;179.13;;
16862;SDS011;52193;48.216;-1.698;2024-02-21T07:22:41;199.20;;;183.65;;
16862;SDS011;52193;48.216;-1.698;2024-02-21T07:25:08;193.75;;;178.13;;
16862;SDS011;52193;48.216;-1.698;2024-02-21T07:27:35;202.63;;;186.63;;
16862;SDS011;52193;48.216;-1.698;2024-02-21T07:30:02;196.13;;;180.57;;
16862;SDS011;52193;48.216;-1.698;2024-02-21T07:32:31;210.13;;;193.18;;
16862;SDS011;52193;48.216;-1.698;2024-02-21T07:34:58;210.25;;;193.32;;
16862;SDS011;52193;48.216;-1.698;2024-02-21T07:37:25;209.50;;;192.82;;
16862;SDS011;52193;48.216;-1.698;2024-02-21T07:39:52;210.40;;;193.43;;
16862;SDS011;52193;48.216;-1.698;2024-02-21T07:42:19;212.20;;;195.55;;
16862;SDS011;52193;48.216;-1.698;2024-02-21T07:44:46;212.85;;;195.70;;
16862;SDS011;52193;48.216;-1.698;2024-02-21T07:47:13;215.18;;;198.10;;
16862;SDS011;52193;48.216;-1.698;2024-02-21T07:52:13;226.88;;;208.88;;
16862;SDS011;52193;48.216;-1.698;2024-02-21T07:54:40;226.20;;;208.07;;
16862;SDS011;52193;48.216;-1.698;2024-02-21T07:57:07;242.85;;;223.63;;
16862;SDS011;52193;48.216;-1.698;2024-02-21T07:59:34;262.38;;;241.95;;
16862;SDS011;52193;48.216;-1.698;2024-02-21T08:02:01;359.17;;;331.92;;
16862;SDS011;52193;48.216;-1.698;2024-02-21T08:04:31;379.13;;;349.42;;
16862;SDS011;52193;48.216;-1.698;2024-02-21T08:06:59;399.45;;;368.67;;
16862;SDS011;52193;48.216;-1.698;2024-02-21T08:09:29;440.48;;;407.35;;
16862;SDS011;52193;48.216;-1.698;2024-02-21T08:11:56;439.77;;;405.13;;
16862;SDS011;52193;48.216;-1.698;2024-02-21T08:14:23;468.30;;;433.38;;
16862;SDS011;52193;48.216;-1.698;2024-02-21T08:16:50;501.77;;;464.08;;
16862;SDS011;52193;48.216;-1.698;2024-02-21T08:19:18;550.92;;;509.38;;
16862;SDS011;52193;48.216;-1.698;2024-02-21T08:21:45;634.97;;;589.72;;
16862;SDS011;52193;48.216;-1.698;2024-02-21T08:24:14;641.65;;;595.70;;
16862;SDS011;52193;48.216;-1.698;2024-02-21T08:26:41;643.70;;;597.63;;
16862;SDS011;52193;48.216;-1.698;2024-02-21T08:29:07;644.25;;;597.92;;
16862;SDS011;52193;48.216;-1.698;2024-02-21T08:31:34;680.05;;;632.28;;
16862;SDS011;52193;48.216;-1.698;2024-02-21T08:34:01;703.70;;;654.35;;
16862;SDS011;52193;48.216;-1.698;2024-02-21T08:36:28;723.05;;;672.33;;
16862;SDS011;52193;48.216;-1.698;2024-02-21T08:38:55;735.92;;;684.65;;
16862;SDS011;52193;48.216;-1.698;2024-02-21T08:41:24;732.15;;;680.90;;
16862;SDS011;52193;48.216;-1.698;2024-02-21T08:43:51;737.65;;;686.00;;
16862;SDS011;52193;48.216;-1.698;2024-02-21T08:46:19;743.30;;;691.70;;
16862;SDS011;52193;48.216;-1.698;2024-02-21T08:48:45;748.30;;;695.88;;
16862;SDS011;52193;48.216;-1.698;2024-02-21T08:51:13;752.10;;;699.67;;
16862;SDS011;52193;48.216;-1.698;2024-02-21T08:53:40;768.75;;;715.60;;
16862;SDS011;52193;48.216;-1.698;2024-02-21T08:56:07;759.50;;;706.95;;
16862;SDS011;52193;48.216;-1.698;2024-02-21T08:58:36;771.90;;;717.95;;
16862;SDS011;52193;48.216;-1.698;2024-02-21T09:01:03;775.70;;;721.38;;
16862;SDS011;52193;48.216;-1.698;2024-02-21T09:03:31;779.67;;;725.13;;
16862;SDS011;52193;48.216;-1.698;2024-02-21T09:05:58;790.38;;;735.13;;
16862;SDS011;52193;48.216;-1.698;2024-02-21T09:08:25;790.78;;;734.95;;
16862;SDS011;52193;48.216;-1.698;2024-02-21T09:10:52;794.55;;;738.00;;
16862;SDS011;52193;48.216;-1.698;2024-02-21T09:13:19;801.58;;;744.45;;
16862;SDS011;52193;48.216;-1.698;2024-02-21T09:15:48;813.42;;;755.78;;
16862;SDS011;52193;48.216;-1.698;2024-02-21T09:18:14;820.80;;;762.35;;
16862;SDS011;52193;48.216;-1.698;2024-02-21T09:20:41;809.58;;;751.42;;
16862;SDS011;52193;48.216;-1.698;2024-02-21T09:23:08;817.95;;;759.08;;
16862;SDS011;52193;48.216;-1.698;2024-02-21T09:25:35;819.42;;;760.00;;
16862;SDS011;52193;48.216;-1.698;2024-02-21T09:28:02;838.08;;;777.28;;
16862;SDS011;52193;48.216;-1.698;2024-02-21T09:30:31;821.88;;;761.15;;
16862;SDS011;52193;48.216;-1.698;2024-02-21T09:32:59;821.50;;;760.63;;
16862;SDS011;52193;48.216;-1.698;2024-02-21T09:35:27;824.30;;;763.10;;
16862;SDS011;52193;48.216;-1.698;2024-02-21T09:37:54;830.28;;;768.42;;
16862;SDS011;52193;48.216;-1.698;2024-02-21T09:40:21;837.75;;;776.20;;
16862;SDS011;52193;48.216;-1.698;2024-02-21T09:42:48;846.95;;;784.05;;
16862;SDS011;52193;48.216;-1.698;2024-02-21T09:45:18;854.67;;;790.53;;
16862;SDS011;52193;48.216;-1.698;2024-02-21T09:47:50;849.30;;;784.75;;
16862;SDS011;52193;48.216;-1.698;2024-02-21T09:50:34;848.08;;;783.45;;
16862;SDS011;52193;48.216;-1.698;2024-02-21T09:53:02;856.95;;;791.35;;
16862;SDS011;52193;48.216;-1.698;2024-02-21T09:55:31;859.53;;;793.95;;
16862;SDS011;52193;48.216;-1.698;2024-02-21T09:58:00;857.33;;;791.35;;
16862;SDS011;52193;48.216;-1.698;2024-02-21T10:00:28;859.33;;;793.30;;
16862;SDS011;52193;48.216;-1.698;2024-02-21T10:02:55;859.67;;;793.83;;
16862;SDS011;52193;48.216;-1.698;2024-02-21T10:05:23;858.30;;;791.20;;
16862;SDS011;52193;48.216;-1.698;2024-02-21T10:07:51;861.92;;;794.83;;
16862;SDS011;52193;48.216;-1.698;2024-02-21T10:10:18;876.63;;;807.28;;
16862;SDS011;52193;48.216;-1.698;2024-02-21T10:12:49;868.42;;;799.95;;
16862;SDS011;52193;48.216;-1.698;2024-02-21T10:15:19;866.92;;;798.97;;
16862;SDS011;52193;48.216;-1.698;2024-02-21T10:17:48;858.90;;;792.08;;
16862;SDS011;52193;48.216;-1.698;2024-02-21T10:20:15;867.83;;;801.00;;
16862;SDS011;52193;48.216;-1.698;2024-02-21T10:22:44;856.85;;;790.00;;
16862;SDS011;52193;48.216;-1.698;2024-02-21T10:25:11;855.53;;;787.92;;
16862;SDS011;52193;48.216;-1.698;2024-02-21T10:27:39;870.55;;;802.45;;
16862;SDS011;52193;48.216;-1.698;2024-02-21T10:30:07;878.15;;;807.30;;
16862;SDS011;52193;48.216;-1.698;2024-02-21T10:32:48;853.25;;;785.63;;
16862;SDS011;52193;48.216;-1.698;2024-02-21T10:35:25;858.30;;;790.15;;
16862;SDS011;52193;48.216;-1.698;2024-02-21T10:37:54;850.85;;;782.92;;
16862;SDS011;52193;48.216;-1.698;2024-02-21T10:40:22;860.08;;;789.60;;
16862;SDS011;52193;48.216;-1.698;2024-02-21T10:42:51;858.22;;;787.17;;
16862;SDS011;52193;48.216;-1.698;2024-02-21T10:45:24;867.67;;;795.35;;
16862;SDS011;52193;48.216;-1.698;2024-02-21T10:47:56;874.65;;;804.58;;
16862;SDS011;52193;48.216;-1.698;2024-02-21T10:50:32;882.45;;;812.75;;
16862;SDS011;52193;48.216;-1.698;2024-02-21T10:53:12;869.10;;;797.60;;
16862;SDS011;52193;48.216;-1.698;2024-02-21T10:55:51;870.42;;;799.53;;
16862;SDS011;52193;48.216;-1.698;2024-02-21T10:58:24;861.50;;;790.88;;
16862;SDS011;52193;48.216;-1.698;2024-02-21T11:00:53;853.88;;;783.10;;
16862;SDS011;52193;48.216;-1.698;2024-02-21T11:03:21;880.05;;;807.38;;
16862;SDS011;52193;48.216;-1.698;2024-02-21T11:05:48;860.33;;;789.10;;
16862;SDS011;52193;48.216;-1.698;2024-02-21T11:08:17;866.67;;;793.92;;
16862;SDS011;52193;48.216;-1.698;2024-02-21T11:10:45;859.80;;;788.33;;
16862;SDS011;52193;48.216;-1.698;2024-02-21T11:13:12;856.53;;;785.10;;
16862;SDS011;52193;48.216;-1.698;2024-02-21T11:15:40;857.53;;;785.17;;
16862;SDS011;52193;48.216;-1.698;2024-02-21T11:18:07;868.15;;;793.65;;
16862;SDS011;52193;48.216;-1.698;2024-02-21T11:20:34;874.63;;;800.13;;
16862;SDS011;52193;48.216;-1.698;2024-02-21T11:23:02;884.30;;;809.30;;
16862;SDS011;52193;48.216;-1.698;2024-02-21T11:25:30;872.05;;;796.92;;
16862;SDS011;52193;48.216;-1.698;2024-02-21T11:27:59;895.67;;;819.17;;
16862;SDS011;52193;48.216;-1.698;2024-02-21T11:30:27;885.20;;;810.28;;
16862;SDS011;52193;48.216;-1.698;2024-02-21T11:33:02;878.28;;;802.38;;
16862;SDS011;52193;48.216;-1.698;2024-02-21T11:35:32;889.63;;;812.33;;
16862;SDS011;52193;48.216;-1.698;2024-02-21T11:38:09;895.03;;;817.45;;
16862;SDS011;52193;48.216;-1.698;2024-02-21T11:40:41;895.25;;;817.72;;
16862;SDS011;52193;48.216;-1.698;2024-02-21T11:43:10;900.45;;;823.17;;
16862;SDS011;52193;48.216;-1.698;2024-02-21T11:45:37;882.67;;;807.08;;
16862;SDS011;52193;48.216;-1.698;2024-02-21T11:48:05;890.42;;;812.33;;
16862;SDS011;52193;48.216;-1.698;2024-02-21T11:50:34;899.33;;;821.05;;
16862;SDS011;52193;48.216;-1.698;2024-02-21T11:53:01;899.85;;;822.03;;
16862;SDS011;52193;48.216;-1.698;2024-02-21T11:55:28;885.72;;;809.63;;
16862;SDS011;52193;48.216;-1.698;2024-02-21T11:57:57;881.53;;;805.60;;
16862;SDS011;52193;48.216;-1.698;2024-02-21T12:00:25;886.85;;;811.35;;
16862;SDS011;52193;48.216;-1.698;2024-02-21T12:02:52;893.97;;;817.47;;
16862;SDS011;52193;48.216;-1.698;2024-02-21T12:05:20;903.08;;;827.33;;
16862;SDS011;52193;48.216;-1.698;2024-02-21T12:07:47;907.83;;;832.08;;
16862;SDS011;52193;48.216;-1.698;2024-02-21T12:10:14;905.63;;;829.05;;
16862;SDS011;52193;48.216;-1.698;2024-02-21T12:12:41;904.42;;;827.45;;
16862;SDS011;52193;48.216;-1.698;2024-02-21T12:15:09;903.58;;;827.35;;
16862;SDS011;52193;48.216;-1.698;2024-02-21T12:17:36;906.25;;;829.90;;
16862;SDS011;52193;48.216;-1.698;2024-02-21T12:20:04;910.83;;;833.88;;
16862;SDS011;52193;48.216;-1.698;2024-02-21T12:22:35;914.92;;;837.42;;
16862;SDS011;52193;48.216;-1.698;2024-02-21T12:25:02;909.30;;;831.53;;
16862;SDS011;52193;48.216;-1.698;2024-02-21T12:27:32;906.00;;;828.55;;
16862;SDS011;52193;48.216;-1.698;2024-02-21T12:29:59;904.53;;;828.83;;
16862;SDS011;52193;48.216;-1.698;2024-02-21T12:32:27;908.92;;;833.13;;
16862;SDS011;52193;48.216;-1.698;2024-02-21T12:34:54;903.33;;;827.97;;
16862;SDS011;52193;48.216;-1.698;2024-02-21T12:37:21;903.20;;;827.65;;
16862;SDS011;52193;48.216;-1.698;2024-02-21T12:39:50;908.17;;;834.10;;
16862;SDS011;52193;48.216;-1.698;2024-02-21T12:42:17;907.33;;;833.30;;
16862;SDS011;52193;48.216;-1.698;2024-02-21T12:44:43;896.75;;;822.35;;
16862;SDS011;52193;48.216;-1.698;2024-02-21T12:47:10;884.70;;;811.95;;
16862;SDS011;52193;48.216;-1.698;2024-02-21T12:49:39;902.63;;;827.78;;
16862;SDS011;52193;48.216;-1.698;2024-02-21T12:52:06;904.17;;;829.65;;
16862;SDS011;52193;48.216;-1.698;2024-02-21T12:54:33;892.08;;;818.17;;
16862;SDS011;52193;48.216;-1.698;2024-02-21T12:57:00;880.53;;;807.88;;
16862;SDS011;52193;48.216;-1.698;2024-02-21T12:59:28;894.13;;;823.03;;
16862;SDS011;52193;48.216;-1.698;2024-02-21T13:01:55;883.65;;;812.72;;
16862;SDS011;52193;48.216;-1.698;2024-02-21T13:04:22;878.22;;;807.17;;
16862;SDS011;52193;48.216;-1.698;2024-02-21T13:06:50;881.40;;;809.97;;
16862;SDS011;52193;48.216;-1.698;2024-02-21T13:09:17;898.70;;;827.28;;
16862;SDS011;52193;48.216;-1.698;2024-02-21T13:11:45;898.08;;;826.20;;
16862;SDS011;52193;48.216;-1.698;2024-02-21T13:14:12;891.53;;;819.38;;
16862;SDS011;52193;48.216;-1.698;2024-02-21T13:16:38;891.47;;;817.92;;
16862;SDS011;52193;48.216;-1.698;2024-02-21T13:19:06;902.95;;;830.00;;
16862;SDS011;52193;48.216;-1.698;2024-02-21T13:21:33;893.67;;;821.95;;
16862;SDS011;52193;48.216;-1.698;2024-02-21T13:24:01;893.13;;;821.95;;
16862;SDS011;52193;48.216;-1.698;2024-02-21T13:26:28;876.67;;;805.28;;
16862;SDS011;52193;48.216;-1.698;2024-02-21T13:28:55;888.50;;;817.33;;
16862;SDS011;52193;48.216;-1.698;2024-02-21T13:31:22;879.58;;;809.38;;
16862;SDS011;52193;48.216;-1.698;2024-02-21T13:33:50;883.33;;;813.15;;
16862;SDS011;52193;48.216;-1.698;2024-02-21T13:36:17;872.42;;;802.92;;
16862;SDS011;52193;48.216;-1.698;2024-02-21T13:38:44;841.67;;;772.83;;
16862;SDS011;52193;48.216;-1.698;2024-02-21T13:41:13;881.67;;;811.00;;
16862;SDS011;52193;48.216;-1.698;2024-02-21T13:43:40;881.30;;;811.15;;
16862;SDS011;52193;48.216;-1.698;2024-02-21T13:46:07;870.38;;;800.15;;
16862;SDS011;52193;48.216;-1.698;2024-02-21T13:48:36;875.60;;;806.63;;
16862;SDS011;52193;48.216;-1.698;2024-02-21T13:51:03;887.13;;;816.38;;